Time;durP1;ratioP1;P1;durP2;ratioP2;P2;SDS_P1;SDS_P2;PMS_P1;PMS_P2;Temp;Humidity;BMP_temperature;BMP_pressure;BME280_temperature;BME280_humidity;BME280_pressure;Samples;Min_cycle;Max_cycle;Signal;HPM_P1;HPM_P2
2021/03/10 00:00:10;;;;;;;10.38;4.15;;;;;;;-1.26;54.32;101211.53;4991579;28;20416;-73
2021/03/10 00:02:37;;;;;;;10.98;4.80;;;;;;;-1.34;54.03;101215.81;4977847;28;20520;-73
2021/03/10 00:05:05;;;;;;;13.75;4.80;;;;;;;-1.28;54.01;101221.84;4989198;28;20457;-73
2021/03/10 00:07:32;;;;;;;14.43;5.18;;;;;;;-1.23;54.10;101215.81;4984883;28;20141;-72
2021/03/10 00:09:59;;;;;;;11.60;4.90;;;;;;;-1.27;53.85;101220.97;4971710;28;20225;-75
2021/03/10 00:12:26;;;;;;;11.30;5.15;;;;;;;-1.39;54.63;101226.16;4972702;28;20483;-74
2021/03/10 00:14:53;;;;;;;10.38;4.80;;;;;;;-1.24;53.92;101219.25;4991778;28;20068;-72
2021/03/10 00:17:20;;;;;;;14.50;5.25;;;;;;;-1.33;53.95;101223.56;4987717;28;20042;-74
2021/03/10 00:19:47;;;;;;;12.70;4.40;;;;;;;-1.42;54.48;101231.31;4992540;28;20054;-74
2021/03/10 00:22:14;;;;;;;11.90;4.55;;;;;;;-1.51;55.02;101225.28;4999309;28;20129;-74
2021/03/10 00:24:41;;;;;;;15.35;4.70;;;;;;;-1.39;55.20;101227.88;4985959;28;20061;-74
2021/03/10 00:27:08;;;;;;;11.07;4.35;;;;;;;-1.55;55.13;101230.44;4981807;28;20137;-74
2021/03/10 00:29:35;;;;;;;12.60;4.75;;;;;;;-1.52;55.61;101229.59;4977458;28;20129;-74
2021/03/10 00:32:02;;;;;;;10.40;4.40;;;;;;;-1.39;54.69;101235.63;5002772;28;20496;-74
2021/03/10 00:34:29;;;;;;;12.68;4.65;;;;;;;-1.42;54.83;101233.03;4984724;28;20050;-73
2021/03/10 00:36:56;;;;;;;9.88;5.07;;;;;;;-1.54;55.02;101232.16;4984253;28;20051;-72
2021/03/10 00:39:22;;;;;;;14.75;4.93;;;;;;;-1.45;54.99;101235.63;4987622;28;20134;-73
2021/03/10 00:41:49;;;;;;;10.75;4.78;;;;;;;-1.39;55.73;101223.56;4994318;28;20038;-74
2021/03/10 00:44:16;;;;;;;10.02;4.60;;;;;;;-1.44;55.80;101235.63;4978716;28;20128;-73
2021/03/10 00:46:43;;;;;;;17.48;4.57;;;;;;;-1.51;55.57;101228.72;5004808;28;20060;-73
2021/03/10 00:49:09;;;;;;;8.90;4.13;;;;;;;-1.67;55.97;101233.00;4982539;28;20141;-74
2021/03/10 00:51:36;;;;;;;12.70;5.28;;;;;;;-1.76;56.28;101224.41;4978173;28;20141;-73
2021/03/10 00:54:03;;;;;;;13.93;4.82;;;;;;;-1.79;56.27;101222.69;4976203;28;20034;-73
2021/03/10 00:56:30;;;;;;;12.25;5.50;;;;;;;-1.69;55.93;101215.81;4975950;28;20053;-73
2021/03/10 00:58:57;;;;;;;13.65;6.20;;;;;;;-1.73;56.30;101221.84;5010208;28;20116;-74
2021/03/10 01:01:23;;;;;;;12.60;5.50;;;;;;;-1.84;56.75;101212.38;4986810;28;20074;-74
2021/03/10 01:03:50;;;;;;;9.65;4.97;;;;;;;-1.78;56.58;101208.94;4994611;28;20144;-75
2021/03/10 01:06:17;;;;;;;13.57;4.82;;;;;;;-1.85;57.07;101202.88;4974968;28;20074;-74
2021/03/10 01:08:44;;;;;;;11.15;5.18;;;;;;;-1.81;57.01;101206.34;5019402;28;20278;-72
2021/03/10 01:11:10;;;;;;;9.68;4.93;;;;;;;-1.62;57.34;101204.63;5003657;28;20050;-74
2021/03/10 01:13:37;;;;;;;10.07;5.20;;;;;;;-1.67;56.66;101203.75;5004672;28;20129;-73
2021/03/10 01:16:04;;;;;;;15.00;5.57;;;;;;;-1.79;56.59;101202.91;4980238;28;20054;-74
2021/03/10 01:18:31;;;;;;;12.82;5.60;;;;;;;-1.74;56.86;101204.63;5000225;28;20042;-73
2021/03/10 01:20:58;;;;;;;11.32;5.28;;;;;;;-1.77;57.31;101202.91;4986603;28;20050;-73
2021/03/10 01:23:25;;;;;;;12.43;5.38;;;;;;;-1.85;57.30;101207.19;4973977;28;20141;-74
2021/03/10 01:25:52;;;;;;;14.27;6.13;;;;;;;-1.89;57.29;101205.47;5016247;28;20124;-73
2021/03/10 01:28:18;;;;;;;13.10;5.88;;;;;;;-1.99;57.50;101207.16;4998070;28;20068;-74
2021/03/10 01:30:45;;;;;;;10.85;4.90;;;;;;;-1.91;57.14;101207.19;4987500;28;20069;-73
2021/03/10 01:33:12;;;;;;;14.15;5.47;;;;;;;-1.77;56.90;101205.47;4988884;28;20069;-73
2021/03/10 01:35:40;;;;;;;16.63;5.35;;;;;;;-1.91;57.41;101204.59;5010484;28;20124;-74
2021/03/10 01:38:07;;;;;;;12.75;5.00;;;;;;;-1.83;56.99;101208.06;4993460;28;20557;-74
2021/03/10 01:40:33;;;;;;;10.98;5.25;;;;;;;-1.79;56.92;101208.06;4997368;28;20126;-73
2021/03/10 01:43:04;;;;;;;16.52;6.57;;;;;;;-1.68;57.22;101210.66;4985741;28;20383;-74
2021/03/10 01:45:31;;;;;;;16.10;6.20;;;;;;;-1.78;57.53;101211.50;4996665;28;20058;-73
2021/03/10 01:47:59;;;;;;;12.55;6.00;;;;;;;-1.77;57.93;101205.47;5015841;28;20077;-73
2021/03/10 01:50:27;;;;;;;14.55;5.63;;;;;;;-1.84;57.42;101203.78;4996780;28;20542;-73
2021/03/10 01:52:55;;;;;;;12.70;5.68;;;;;;;-1.75;56.93;101203.78;4998164;28;20077;-75
2021/03/10 01:55:22;;;;;;;13.82;5.90;;;;;;;-1.69;57.01;101198.59;4980331;28;20140;-73
2021/03/10 01:57:49;;;;;;;18.73;7.13;;;;;;;-1.76;56.35;101201.19;4986531;28;20062;-74
2021/03/10 02:00:16;;;;;;;14.23;5.72;;;;;;;-1.86;56.72;101200.31;4995788;28;20141;-74
2021/03/10 02:02:43;;;;;;;19.10;6.68;;;;;;;-1.94;56.78;101205.44;4972421;28;20087;-74
2021/03/10 02:05:16;;;;;;;21.75;7.05;;;;;;;-1.77;56.49;101210.63;4980751;28;20607;-74
2021/03/10 02:08:05;;;;;;;16.27;5.75;;;;;;;-1.87;57.43;101196.00;4963612;28;20050;-74
2021/03/10 02:27:15;;;;;;;14.32;5.70;;;;;;;-2.16;57.86;101206.25;5009699;28;20068;-74
2021/03/10 02:30:05;;;;;;;14.32;6.38;;;;;;;-2.17;57.46;101212.28;4987904;28;20521;-73
2021/03/10 02:32:34;;;;;;;18.42;6.05;;;;;;;-2.13;58.77;101212.28;4979526;28;20038;-74
2021/03/10 02:35:03;;;;;;;15.38;5.72;;;;;;;-1.99;59.35;101204.59;4979588;28;20402;-74
2021/03/10 02:37:31;;;;;;;15.32;5.82;;;;;;;-1.85;57.71;101197.72;4982853;28;20134;-74
2021/03/10 02:39:58;;;;;;;13.70;5.88;;;;;;;-1.68;57.90;101199.47;5016312;28;20065;-73
2021/03/10 02:42:26;;;;;;;17.55;6.68;;;;;;;-2.11;58.15;101208.03;4990342;28;20438;-73
2021/03/10 02:44:55;;;;;;;17.50;6.70;;;;;;;-2.11;58.24;101197.69;4983386;28;20529;-74
2021/03/10 02:47:24;;;;;;;16.98;6.80;;;;;;;-1.99;57.40;101198.56;4957451;28;20053;-73
2021/03/10 02:49:54;;;;;;;17.30;6.05;;;;;;;-1.97;57.25;101191.72;4989759;28;20053;-74
2021/03/10 02:52:22;;;;;;;15.05;6.97;;;;;;;-2.11;56.95;101196.84;4994516;28;20042;-73
2021/03/10 02:54:50;;;;;;;16.88;6.97;;;;;;;-2.16;57.33;101206.25;4992595;28;20051;-72
2021/03/10 02:57:17;;;;;;;16.80;6.38;;;;;;;-2.12;56.98;101193.38;4976127;28;20140;-74
2021/03/10 02:59:46;;;;;;;19.60;7.07;;;;;;;-2.16;57.45;101199.41;4992768;28;20068;-74
2021/03/10 03:02:13;;;;;;;16.63;7.47;;;;;;;-2.20;57.77;101199.41;4972308;28;20151;-74
2021/03/10 03:04:41;;;;;;;18.58;7.82;;;;;;;-2.22;57.28;101199.38;5010448;28;20045;-74
2021/03/10 03:07:17;;;;;;;18.58;7.30;;;;;;;-2.16;58.32;101202.00;4976262;28;20058;-74
2021/03/10 03:09:44;;;;;;;21.05;8.43;;;;;;;-2.17;57.15;101209.72;4986192;28;20047;-73
2021/03/10 03:12:12;;;;;;;15.32;6.88;;;;;;;-2.15;58.33;101208.88;4980247;28;20129;-74
2021/03/10 03:14:40;;;;;;;18.15;7.97;;;;;;;-2.11;57.73;101213.19;4998591;28;20061;-73
2021/03/10 03:17:07;;;;;;;17.52;7.28;;;;;;;-2.18;57.67;101213.16;4981541;28;20062;-74
2021/03/10 03:19:35;;;;;;;17.42;7.03;;;;;;;-2.12;57.00;101214.00;4993806;28;20117;-74
2021/03/10 03:22:03;;;;;;;21.80;7.93;;;;;;;-2.20;57.47;101208.00;4983939;28;20622;-73
2021/03/10 03:24:30;;;;;;;19.17;7.80;;;;;;;-2.07;57.38;101209.75;4975709;28;20133;-74
2021/03/10 03:26:57;;;;;;;22.45;7.13;;;;;;;-2.15;57.14;101211.44;4973678;28;20071;-73
2021/03/10 03:29:25;;;;;;;17.08;6.72;;;;;;;-2.22;57.11;101209.69;4972035;28;20161;-73
2021/03/10 03:31:54;;;;;;;20.95;8.30;;;;;;;-2.41;58.13;101211.38;4973356;28;20044;-73
2021/03/10 03:34:21;;;;;;;21.67;7.35;;;;;;;-2.39;58.11;101211.34;4977855;28;20502;-74
2021/03/10 03:36:48;;;;;;;20.58;7.90;;;;;;;-2.43;58.37;101215.66;4984076;28;20059;-72
2021/03/10 03:39:16;;;;;;;24.15;8.43;;;;;;;-2.40;58.12;101210.50;5005699;28;20072;-73
2021/03/10 03:41:44;;;;;;;21.15;7.22;;;;;;;-2.32;58.09;101210.53;4972704;28;20137;-74
2021/03/10 03:44:11;;;;;;;25.52;8.25;;;;;;;-2.51;58.41;101208.75;4995028;28;20054;-73
2021/03/10 03:46:39;;;;;;;21.67;8.32;;;;;;;-2.45;57.97;101206.19;5003293;28;20070;-73
2021/03/10 03:49:06;;;;;;;23.02;8.98;;;;;;;-2.45;58.68;101211.34;4982643;28;20059;-74
2021/03/10 03:51:33;;;;;;;24.45;8.75;;;;;;;-2.34;57.74;101212.25;4992276;28;21424;-73
2021/03/10 03:54:03;;;;;;;21.42;8.30;;;;;;;-2.42;58.56;101217.38;4984371;28;20050;-75
2021/03/10 03:56:30;;;;;;;19.70;7.95;;;;;;;-2.43;58.00;101217.34;4991296;28;20050;-73
2021/03/10 03:58:57;;;;;;;24.38;8.77;;;;;;;-2.44;58.42;101219.06;5008352;28;20046;-73
2021/03/10 04:01:24;;;;;;;23.52;9.00;;;;;;;-2.58;59.07;101219.03;4972726;28;20477;-73
2021/03/10 04:03:51;;;;;;;22.45;8.32;;;;;;;-2.45;58.69;101209.63;4995978;28;20034;-74
2021/03/10 04:06:18;;;;;;;21.48;8.68;;;;;;;-2.20;58.06;101218.31;4987628;28;20414;-74
2021/03/10 04:08:45;;;;;;;22.40;7.95;;;;;;;-2.32;58.39;101223.44;4999728;28;20691;-74
2021/03/10 04:11:13;;;;;;;22.90;8.50;;;;;;;-2.39;58.91;101221.66;4974550;28;20137;-73
2021/03/10 04:13:40;;;;;;;19.58;7.47;;;;;;;-2.48;58.87;101219.91;4993229;28;20116;-74
2021/03/10 04:16:07;;;;;;;24.90;8.52;;;;;;;-2.75;59.98;101217.22;4985560;28;20073;-75
2021/03/10 04:18:38;;;;;;;24.90;9.45;;;;;;;-2.59;58.66;101219.03;4994551;28;20068;-74
2021/03/10 04:21:05;;;;;;;23.20;9.05;;;;;;;-2.43;57.65;101218.25;4968278;28;20284;-75
2021/03/10 04:23:33;;;;;;;24.15;8.85;;;;;;;-2.41;57.93;101218.25;4996790;28;20038;-74
2021/03/10 04:26:00;;;;;;;26.40;9.48;;;;;;;-2.55;58.14;101219.03;4979707;28;20058;-73
2021/03/10 04:28:27;;;;;;;19.63;7.97;;;;;;;-2.49;57.97;101212.19;4998157;28;20358;-74
2021/03/10 04:30:54;;;;;;;35.67;10.00;;;;;;;-2.33;57.37;101219.13;5006931;28;20084;-74
2021/03/10 04:33:21;;;;;;;26.25;8.18;;;;;;;-2.47;57.67;101219.09;4983928;28;20574;-74
2021/03/10 04:35:47;;;;;;;24.30;9.13;;;;;;;-2.63;58.42;101222.44;4966270;28;20062;-73
2021/03/10 04:38:26;;;;;;;26.13;8.57;;;;;;;-2.61;58.29;101220.75;4987089;28;20124;-74
2021/03/10 04:40:53;;;;;;;23.92;8.45;;;;;;;-2.60;58.44;101225.91;4975247;28;20069;-74
2021/03/10 04:43:20;;;;;;;22.88;8.60;;;;;;;-2.72;58.29;101227.56;4986157;28;20046;-73
2021/03/10 04:45:47;;;;;;;19.50;7.78;;;;;;;-2.47;57.92;101226.81;4959282;28;20041;-73
2021/03/10 04:48:13;;;;;;;23.63;9.30;;;;;;;-2.58;57.74;101224.19;4980246;28;20157;-73
2021/03/10 04:50:40;;;;;;;25.25;9.68;;;;;;;-2.60;57.90;101225.03;4984675;28;20053;-74
2021/03/10 04:53:07;;;;;;;24.65;9.40;;;;;;;-2.74;58.25;101224.13;4983456;28;20084;-73
2021/03/10 04:55:34;;;;;;;23.30;9.23;;;;;;;-2.72;58.63;101225.84;5008571;28;20538;-73
2021/03/10 04:58:01;;;;;;;25.17;8.68;;;;;;;-2.82;58.52;101227.50;4993776;28;20080;-74
2021/03/10 05:00:27;;;;;;;22.02;8.55;;;;;;;-2.92;59.43;101227.47;4986109;28;20118;-73
2021/03/10 05:02:54;;;;;;;24.77;9.00;;;;;;;-3.04;59.40;101224.78;4986821;28;20062;-73
2021/03/10 05:05:21;;;;;;;23.20;9.60;;;;;;;-3.06;59.89;101235.09;4992664;28;20034;-74
2021/03/10 05:07:48;;;;;;;23.23;7.93;;;;;;;-3.12;60.31;101230.75;5002659;28;20053;-74
2021/03/10 05:10:15;;;;;;;24.40;9.05;;;;;;;-3.03;60.57;101232.53;5006458;28;20074;-73
2021/03/10 05:12:42;;;;;;;21.65;8.50;;;;;;;-2.80;60.16;101238.66;4989158;28;20577;-74
2021/03/10 05:15:09;;;;;;;25.48;9.38;;;;;;;-2.88;59.81;101242.94;4980249;28;20093;-74
2021/03/10 05:17:36;;;;;;;27.27;11.35;;;;;;;-3.03;60.12;101242.81;4992823;28;20063;-74
2021/03/10 05:20:05;;;;;;;23.20;8.80;;;;;;;-3.16;60.65;101249.59;4956326;28;20131;-74
2021/03/10 05:22:32;;;;;;;30.02;9.43;;;;;;;-3.04;60.86;101245.41;4973204;28;20043;-74
2021/03/10 05:24:59;;;;;;;23.17;9.63;;;;;;;-3.00;61.67;101247.16;4972117;28;20042;-74
2021/03/10 05:27:30;;;;;;;23.65;9.23;;;;;;;-3.14;61.10;101252.22;4997338;28;20664;-73
2021/03/10 05:29:58;;;;;;;27.88;9.80;;;;;;;-3.10;61.04;101253.97;4981637;28;20072;-74
2021/03/10 05:32:25;;;;;;;36.40;11.30;;;;;;;-3.02;60.88;101252.28;5010755;28;20054;-74
2021/03/10 05:34:52;;;;;;;28.17;10.05;;;;;;;-3.06;60.77;101255.72;5005672;28;20045;-76
2021/03/10 05:37:19;;;;;;;33.20;11.95;;;;;;;-3.23;61.48;101259.88;4985924;28;20073;-75
2021/03/10 05:39:46;;;;;;;32.75;11.60;;;;;;;-3.36;61.35;101256.31;5001363;28;20068;-74
2021/03/10 05:42:13;;;;;;;26.50;10.30;;;;;;;-3.24;61.81;101259.00;4967434;28;20083;-74
2021/03/10 05:44:40;;;;;;;21.75;10.10;;;;;;;-3.19;61.62;101264.19;4989999;28;20137;-73
2021/03/10 05:47:07;;;;;;;27.55;10.55;;;;;;;-3.10;61.42;101265.13;5007772;28;20505;-74
2021/03/10 05:49:35;;;;;;;28.73;10.27;;;;;;;-2.69;61.24;101261.06;4959474;28;20069;-75
2021/03/10 05:52:04;;;;;;;25.83;9.27;;;;;;;-2.54;60.68;101256.00;4985779;28;20534;-74
2021/03/10 05:54:31;;;;;;;27.70;11.00;;;;;;;-2.41;61.07;101252.63;5000559;28;20050;-72
2021/03/10 05:57:01;;;;;;;28.75;9.95;;;;;;;-2.42;60.03;101250.03;4972791;28;20042;-75
2021/03/10 05:59:28;;;;;;;35.28;12.00;;;;;;;-2.40;59.70;101256.06;4980914;28;20503;-72
2021/03/10 06:01:55;;;;;;;25.20;9.32;;;;;;;-2.50;60.45;101262.88;5005490;28;20124;-74
2021/03/10 06:04:24;;;;;;;26.10;9.95;;;;;;;-2.36;59.77;101270.69;4979225;28;20065;-74
2021/03/10 06:06:51;;;;;;;24.67;9.23;;;;;;;-2.39;59.80;101266.34;4998509;28;20782;-73
2021/03/10 06:09:35;;;;;;;31.15;11.13;;;;;;;-2.18;59.42;101267.31;4994412;28;20129;-73
2021/03/10 06:12:05;;;;;;;37.20;12.57;;;;;;;-1.57;57.80;101265.75;4985086;28;20092;-74
2021/03/10 06:14:32;;;;;;;28.40;12.00;;;;;;;-0.84;55.86;101264.84;4978221;28;20072;-73
2021/03/10 06:17:10;;;;;;;29.35;12.15;;;;;;;0.02;53.53;101261.94;5002121;28;20113;-74
2021/03/10 06:19:48;;;;;;;35.90;12.57;;;;;;;0.35;52.73;101260.88;5022526;28;20049;-74
2021/03/10 06:22:17;;;;;;;34.60;11.00;;;;;;;0.82;50.57;101259.66;4994234;28;20045;-74
2021/03/10 06:24:44;;;;;;;30.63;12.95;;;;;;;1.12;50.06;101255.03;4976961;28;20057;-74
2021/03/10 06:27:10;;;;;;;35.60;13.05;;;;;;;0.93;49.90;101262.16;5010383;28;20186;-72
2021/03/10 06:29:37;;;;;;;29.95;13.27;;;;;;;2.06;46.76;101260.00;4979059;28;20133;-74
2021/03/10 06:32:06;;;;;;;32.45;13.52;;;;;;;3.53;43.77;101264.47;4968906;28;20084;-74
2021/03/10 06:34:44;;;;;;;37.08;13.05;;;;;;;4.65;40.06;101259.41;4988047;28;20458;-75
2021/03/10 06:37:11;;;;;;;27.58;11.82;;;;;;;5.37;38.41;101251.50;4974856;28;20133;-75
2021/03/10 06:40:11;;;;;;;30.67;11.73;;;;;;;5.85;36.91;101257.06;4957495;28;20049;-75
2021/03/10 06:42:39;;;;;;;31.92;12.68;;;;;;;6.36;36.29;101253.81;4975685;28;20045;-74
2021/03/10 06:45:08;;;;;;;37.53;15.07;;;;;;;7.68;33.78;101260.66;4965040;28;20057;-75
2021/03/10 06:47:39;;;;;;;31.17;12.85;;;;;;;8.60;32.40;101260.63;5006678;28;20054;-76
2021/03/10 06:50:10;;;;;;;27.60;12.65;;;;;;;10.12;29.34;101270.59;4988249;28;20160;-77
2021/03/10 06:52:38;;;;;;;31.00;13.15;;;;;;;10.04;29.27;101266.63;4986387;28;20050;-75
2021/03/10 06:55:06;;;;;;;29.85;12.48;;;;;;;10.85;27.99;101266.25;4988533;28;20058;-76
2021/03/10 06:57:42;;;;;;;32.08;14.07;;;;;;;10.79;27.69;101263.06;4969835;28;20510;-75
2021/03/10 07:00:22;;;;;;;34.50;14.68;;;;;;;10.59;28.47;101264.91;4993602;28;20124;-78
2021/03/10 07:02:49;;;;;;;26.05;13.85;;;;;;;10.55;27.93;101273.88;4976631;28;20079;-75
2021/03/10 07:05:17;;;;;;;37.95;14.18;;;;;;;10.71;27.34;101267.84;4975806;28;20125;-78
2021/03/10 07:07:47;;;;;;;35.35;13.77;;;;;;;10.96;27.17;101273.63;4973377;28;20058;-73
2021/03/10 07:10:22;;;;;;;33.92;15.63;;;;;;;9.33;29.73;101287.34;4957481;28;20128;-78
2021/03/10 07:12:49;;;;;;;30.23;13.35;;;;;;;9.20;29.71;101287.00;4985574;28;20546;-77
2021/03/10 07:15:16;;;;;;;33.83;14.90;;;;;;;9.20;30.53;101294.03;4983347;28;20050;-75
2021/03/10 07:17:46;;;;;;;44.25;14.25;;;;;;;10.52;28.29;101288.97;4985110;28;20065;-76
2021/03/10 07:20:13;;;;;;;33.72;14.27;;;;;;;10.79;27.77;101281.50;4981454;28;20083;-73
2021/03/10 07:22:51;;;;;;;29.90;13.90;;;;;;;11.10;27.24;101284.31;4994054;28;20497;-74
2021/03/10 07:25:27;;;;;;;27.92;12.38;;;;;;;12.48;24.97;101291.97;5002730;28;20077;-74
2021/03/10 07:28:00;;;;;;;25.98;13.10;;;;;;;13.51;23.70;101295.63;4966964;28;20134;-75
2021/03/10 07:30:34;;;;;;;26.40;12.90;;;;;;;13.87;22.52;101283.75;4973429;28;20050;-74
2021/03/10 07:33:08;;;;;;;25.77;13.30;;;;;;;14.24;21.60;101282.28;4981047;28;20130;-74
2021/03/10 07:35:49;;;;;;;29.70;13.60;;;;;;;15.57;20.83;101278.69;4990399;28;20101;-81
2021/03/10 07:38:16;;;;;;;31.75;13.52;;;;;;;15.40;20.85;101285.19;4989041;28;20053;-79
2021/03/10 07:40:58;;;;;;;25.63;14.05;;;;;;;16.82;19.33;101283.97;4960080;28;20140;-80
2021/03/10 07:43:37;;;;;;;28.75;13.55;;;;;;;16.68;19.51;101282.31;5010401;28;20062;-78
2021/03/10 07:46:16;;;;;;;25.30;13.35;;;;;;;17.34;18.57;101288.00;4998889;28;20143;-78
2021/03/10 07:48:43;;;;;;;34.00;16.35;;;;;;;16.35;19.37;101307.75;4982138;28;20046;-81
2021/03/10 07:51:23;;;;;;;25.38;14.13;;;;;;;14.73;21.27;101300.31;4991176;28;20054;-79
2021/03/10 07:53:50;;;;;;;24.15;13.43;;;;;;;14.18;21.37;101302.06;4982752;28;20107;-74
2021/03/10 07:56:31;;;;;;;30.80;13.70;;;;;;;13.39;22.72;101305.16;4975524;28;20104;-76
2021/03/10 07:59:07;;;;;;;24.90;12.85;;;;;;;14.44;21.66;101310.13;4965932;28;20140;-78
2021/03/10 08:01:34;;;;;;;34.47;14.52;;;;;;;15.67;20.63;101294.91;4992725;28;20593;-75
2021/03/10 08:04:11;;;;;;;27.50;13.32;;;;;;;16.80;19.24;101301.84;4998270;28;20054;-73
2021/03/10 08:06:41;;;;;;;25.13;14.02;;;;;;;16.03;19.83;101304.75;4973268;28;20132;-75
2021/03/10 08:09:08;;;;;;;25.90;12.57;;;;;;;17.10;18.85;101310.19;4997280;28;20132;-75
2021/03/10 08:11:42;;;;;;;22.67;13.15;;;;;;;17.76;18.39;101315.81;5002969;28;20061;-76
2021/03/10 08:14:10;;;;;;;22.92;11.60;;;;;;;17.81;17.75;101302.97;4969677;28;20046;-76
2021/03/10 08:16:48;;;;;;;22.98;13.23;;;;;;;17.75;18.31;101303.47;4981919;28;20057;-77
2021/03/10 08:19:22;;;;;;;30.75;14.10;;;;;;;17.33;18.62;101302.25;4983957;28;20133;-79
2021/03/10 08:21:53;;;;;;;25.50;12.52;;;;;;;15.64;20.01;101303.91;5001486;28;20128;-79
2021/03/10 08:24:21;;;;;;;22.60;13.27;;;;;;;16.32;19.37;101301.78;4967403;28;20054;-80
2021/03/10 08:26:50;;;;;;;23.73;12.48;;;;;;;16.91;18.86;101299.22;4991343;28;20484;-80
2021/03/10 08:29:17;;;;;;;25.02;13.23;;;;;;;16.98;18.83;101300.47;4945510;28;20116;-77
2021/03/10 08:31:48;;;;;;;24.70;12.70;;;;;;;17.91;17.92;101295.09;4970990;28;20056;-78
2021/03/10 08:34:27;;;;;;;24.05;12.73;;;;;;;17.83;17.76;101308.16;4977991;28;20455;-75
2021/03/10 08:36:54;;;;;;;22.83;13.13;;;;;;;17.06;18.19;101306.03;4966433;28;20092;-78
2021/03/10 08:39:21;;;;;;;25.23;13.10;;;;;;;16.92;18.19;101307.09;4947316;28;20710;-78
2021/03/10 08:41:52;;;;;;;23.02;12.65;;;;;;;16.15;18.98;101308.31;4956452;28;20050;-78
2021/03/10 08:44:21;;;;;;;21.52;11.35;;;;;;;17.15;18.45;101300.03;4980341;28;20059;-78
2021/03/10 08:46:56;;;;;;;23.40;12.65;;;;;;;16.56;19.03;101289.34;4966607;28;20477;-76
2021/03/10 08:49:29;;;;;;;22.23;12.85;;;;;;;15.55;20.03;101285.94;4984819;28;20070;-74
2021/03/10 08:52:22;;;;;;;23.25;12.40;;;;;;;17.00;19.47;101279.06;5001187;28;20671;-76
2021/03/10 08:55:03;;;;;;;19.67;11.95;;;;;;;16.17;19.65;101279.84;4946198;28;20045;-78
2021/03/10 08:57:34;;;;;;;25.30;11.65;;;;;;;16.34;19.50;101273.28;4962368;28;20090;-74
2021/03/10 09:00:07;;;;;;;39.75;12.70;;;;;;;15.58;20.44;101269.81;4970288;28;20053;-79
2021/03/10 09:02:35;;;;;;;36.10;11.45;;;;;;;15.50;20.16;101279.25;4972151;28;20053;-79
2021/03/10 09:05:06;;;;;;;25.60;10.77;;;;;;;16.22;19.26;101274.19;4972351;28;20530;-78
2021/03/10 09:07:33;;;;;;;27.20;11.38;;;;;;;15.85;19.64;101284.75;4991392;28;20065;-77
2021/03/10 09:10:10;;;;;;;20.58;10.30;;;;;;;14.40;20.98;101290.06;4957684;28;20053;-77
2021/03/10 09:12:42;;;;;;;21.35;9.13;;;;;;;15.63;19.51;101285.41;4960107;28;20057;-74
2021/03/10 09:15:11;;;;;;;19.92;9.85;;;;;;;15.73;19.19;101286.50;4969684;28;20491;-76
2021/03/10 09:17:37;;;;;;;24.35;10.38;;;;;;;14.59;20.34;101293.28;4970487;28;20053;-74
2021/03/10 09:20:11;;;;;;;19.27;8.18;;;;;;;11.97;22.39;101300.00;4991628;28;20065;-74
2021/03/10 09:22:45;;;;;;;16.50;7.72;;;;;;;10.13;25.36;101310.91;4979870;28;21215;-76
2021/03/10 09:25:14;;;;;;;18.85;7.10;;;;;;;8.40;27.03;101309.56;4977578;28;20359;-76
2021/03/10 09:27:44;;;;;;;17.92;7.82;;;;;;;8.07;28.84;101304.66;4984548;28;20120;-76
2021/03/10 09:30:25;;;;;;;18.27;8.45;;;;;;;7.72;29.51;101298.94;4957975;28;20042;-74
2021/03/10 09:32:52;;;;;;;22.17;8.60;;;;;;;7.33;30.62;101294.19;4971905;28;20042;-74
2021/03/10 09:35:37;;;;;;;20.55;9.30;;;;;;;7.38;30.82;101301.03;4978296;28;20041;-74
2021/03/10 09:38:06;;;;;;;17.40;8.05;;;;;;;7.22;31.42;101293.72;4963953;28;20089;-75
2021/03/10 09:40:35;;;;;;;18.23;8.77;;;;;;;7.21;31.67;101286.78;4979289;28;20050;-74
2021/03/10 09:43:06;;;;;;;19.77;9.35;;;;;;;6.89;32.32;101285.25;4996158;28;20594;-74
2021/03/10 09:45:34;;;;;;;19.08;9.13;;;;;;;6.72;31.66;101288.41;4989742;28;20062;-77
2021/03/10 09:48:03;;;;;;;18.23;8.10;;;;;;;6.28;32.43;101289.81;4986188;28;20072;-77
2021/03/10 09:50:37;;;;;;;20.02;8.40;;;;;;;6.50;32.84;101290.84;4991559;28;20144;-77
2021/03/10 09:53:24;;;;;;;22.95;8.25;;;;;;;6.73;32.52;101297.13;4965643;28;20057;-76
2021/03/10 09:56:03;;;;;;;18.60;7.50;;;;;;;6.97;32.10;101288.44;4955830;28;20493;-78
2021/03/10 09:58:30;;;;;;;16.67;5.88;;;;;;;6.98;30.83;101291.91;4985075;28;20064;-74
2021/03/10 10:01:00;;;;;;;16.88;6.60;;;;;;;6.73;31.01;101295.34;4998644;28;20145;-78
2021/03/10 10:03:28;;;;;;;12.63;6.25;;;;;;;6.50;31.30;101300.47;4970354;28;20077;-77
2021/03/10 10:06:05;;;;;;;13.60;6.50;;;;;;;6.44;30.76;101301.53;4971822;28;20482;-77
2021/03/10 10:08:38;;;;;;;16.30;6.10;;;;;;;6.60;30.44;101284.41;4985355;28;20141;-79
2021/03/10 10:11:08;;;;;;;13.75;5.25;;;;;;;6.48;29.66;101289.19;4976376;28;21076;-78
2021/03/10 10:13:48;;;;;;;12.50;5.78;;;;;;;6.76;30.47;101297.88;4966810;28;20049;-75
2021/03/10 10:16:15;;;;;;;13.75;5.13;;;;;;;6.82;29.49;101295.06;4984291;28;21261;-75
2021/03/10 10:18:44;;;;;;;8.88;3.90;;;;;;;6.99;28.88;101294.50;4987038;28;20042;-78
2021/03/10 10:21:12;;;;;;;14.82;4.13;;;;;;;7.21;28.53;101296.41;4981765;28;20153;-73
2021/03/10 10:23:39;;;;;;;8.73;3.90;;;;;;;7.16;27.56;101287.81;4965376;28;20081;-75
2021/03/10 10:26:06;;;;;;;8.25;4.00;;;;;;;7.19;27.47;101279.88;5003594;28;20790;-74
2021/03/10 10:28:33;;;;;;;6.80;3.80;;;;;;;7.22;27.80;101280.63;4979448;28;20157;-74
2021/03/10 10:30:59;;;;;;;7.07;3.13;;;;;;;7.12;27.59;101279.25;4979432;28;21345;-68
2021/03/10 10:33:26;;;;;;;7.97;3.92;;;;;;;7.18;26.21;101280.78;4983395;28;20061;-69
2021/03/10 10:35:54;;;;;;;8.27;3.83;;;;;;;7.33;26.51;101277.63;4984944;28;20513;-69
2021/03/10 10:38:21;;;;;;;9.88;4.75;;;;;;;7.18;27.35;101286.03;4997415;28;20054;-71
2021/03/10 10:40:48;;;;;;;9.25;4.13;;;;;;;7.20;27.17;101284.19;4974839;28;20070;-73
2021/03/10 10:43:15;;;;;;;10.75;4.40;;;;;;;7.36;26.15;101282.78;4958831;28;21255;-76
2021/03/10 10:45:42;;;;;;;10.48;4.93;;;;;;;7.48;26.67;101278.88;5009396;28;20045;-72
2021/03/10 10:48:09;;;;;;;9.77;4.97;;;;;;;7.53;26.40;101275.16;5005096;28;20074;-80
2021/03/10 10:50:36;;;;;;;13.48;5.30;;;;;;;7.84;27.30;101269.66;4999884;28;20050;-79
2021/03/10 10:53:06;;;;;;;7.88;4.60;;;;;;;8.11;26.52;101267.78;4972570;28;20062;-74
2021/03/10 10:55:33;;;;;;;11.60;4.95;;;;;;;7.77;25.96;101272.56;5002909;28;20085;-74
2021/03/10 10:58:00;;;;;;;6.95;4.15;;;;;;;7.78;24.72;101267.25;4981983;28;20188;-74
2021/03/10 11:00:27;;;;;;;7.82;3.30;;;;;;;7.71;24.67;101270.19;4963170;28;20145;-76
2021/03/10 11:02:55;;;;;;;6.70;4.18;;;;;;;7.78;24.69;101277.75;4964746;28;20085;-73
2021/03/10 11:05:22;;;;;;;7.47;3.67;;;;;;;7.72;24.76;101270.13;5001150;28;20058;-74
2021/03/10 11:07:50;;;;;;;8.15;3.90;;;;;;;7.75;24.73;101266.53;4983522;28;20178;-77
2021/03/10 11:10:16;;;;;;;9.80;3.88;;;;;;;7.83;24.76;101264.47;4976852;28;20432;-77
2021/03/10 11:12:43;;;;;;;8.70;4.25;;;;;;;7.92;24.65;101261.50;4966859;28;20046;-77
2021/03/10 11:15:10;;;;;;;12.60;3.63;;;;;;;7.89;24.92;101259.00;4980495;28;20972;-75
2021/03/10 11:17:37;;;;;;;6.05;3.70;;;;;;;8.01;25.03;101263.78;4998732;28;20609;-78
2021/03/10 11:20:06;;;;;;;8.45;4.30;;;;;;;8.02;24.70;101254.16;4976752;28;20057;-76
2021/03/10 11:22:34;;;;;;;11.98;4.18;;;;;;;8.15;24.81;101250.16;4978876;28;20058;-77
2021/03/10 11:25:03;;;;;;;9.02;3.88;;;;;;;7.60;25.04;101247.81;4964894;28;20172;-74
2021/03/10 11:27:30;;;;;;;11.70;4.07;;;;;;;7.87;24.91;101240.69;4964398;28;20152;-74
2021/03/10 11:29:57;;;;;;;7.82;4.03;;;;;;;7.93;25.49;101244.88;4996745;28;20181;-74
2021/03/10 11:32:24;;;;;;;8.45;4.68;;;;;;;8.09;25.10;101243.34;4981362;28;20104;-74
2021/03/10 11:34:50;;;;;;;10.15;3.75;;;;;;;8.31;23.16;101234.66;4987113;28;20062;-73
2021/03/10 11:37:18;;;;;;;10.05;4.25;;;;;;;8.17;24.00;101237.81;4950291;28;20054;-74
2021/03/10 11:39:45;;;;;;;8.57;3.97;;;;;;;8.17;23.92;101219.47;4959161;28;20094;-74
2021/03/10 11:42:13;;;;;;;8.70;4.22;;;;;;;8.16;23.18;101228.25;4965294;28;20053;-74